createdAt,value
2019-06-19T00:00:33.943Z,17.79
2019-06-19T00:01:33.857Z,17.80
2019-06-19T00:02:33.838Z,17.82
2019-06-19T00:03:33.821Z,17.82
2019-06-19T00:04:33.801Z,17.79
2019-06-19T00:05:33.786Z,17.78
2019-06-19T00:06:33.765Z,17.78
2019-06-19T00:07:33.751Z,17.64
2019-06-19T00:08:33.821Z,17.60
2019-06-19T00:09:33.708Z,17.63
2019-06-19T00:10:33.691Z,17.70
2019-06-19T00:11:33.670Z,17.65
2019-06-19T00:12:33.655Z,17.64
2019-06-19T00:13:33.635Z,17.67
2019-06-19T00:14:33.616Z,17.64
2019-06-19T00:15:33.599Z,17.65
2019-06-19T00:16:33.576Z,17.74
2019-06-19T00:17:33.561Z,17.65
2019-06-19T00:18:33.601Z,17.64
2019-06-19T00:19:36.784Z,17.64
2019-06-19T00:20:33.503Z,17.67
2019-06-19T00:21:33.488Z,17.64
2019-06-19T00:22:33.925Z,17.56
2019-06-19T00:23:33.450Z,17.63
2019-06-19T00:24:33.428Z,17.57
2019-06-19T00:25:33.777Z,17.57
2019-06-19T00:26:33.388Z,17.64
2019-06-19T00:27:33.369Z,17.60
2019-06-19T00:28:33.648Z,17.63
2019-06-19T00:29:40.230Z,17.67
2019-06-19T00:30:33.314Z,17.64
2019-06-19T00:31:33.297Z,17.67
2019-06-19T00:32:33.283Z,17.70
2019-06-19T00:33:33.297Z,17.54
2019-06-19T00:34:33.238Z,17.57
2019-06-19T00:35:33.223Z,17.60
2019-06-19T00:36:33.207Z,17.52
2019-06-19T00:37:33.182Z,17.52
2019-06-19T00:38:33.164Z,17.52
2019-06-19T00:39:33.148Z,17.36
2019-06-19T00:40:33.123Z,17.42
2019-06-19T00:41:33.104Z,17.44
2019-06-19T00:42:33.090Z,17.34
2019-06-19T00:43:33.066Z,17.36
2019-06-19T00:44:33.054Z,17.34
2019-06-19T00:45:33.034Z,17.23
2019-06-19T00:46:33.009Z,17.16
2019-06-19T00:47:32.993Z,17.15
2019-06-19T00:48:32.978Z,17.06
2019-06-19T00:49:32.954Z,16.99
2019-06-19T00:50:32.942Z,16.99
2019-06-19T00:51:32.916Z,16.99
2019-06-19T00:52:32.908Z,16.97
2019-06-19T00:53:32.880Z,16.87
2019-06-19T00:54:32.862Z,16.94
2019-06-19T00:55:32.844Z,16.87
2019-06-19T00:56:32.832Z,16.89
2019-06-19T00:57:32.804Z,16.97
2019-06-19T00:58:32.785Z,17.11
2019-06-19T00:59:32.766Z,17.06
2019-06-19T01:00:32.764Z,17.02
2019-06-19T01:01:32.728Z,17.04
2019-06-19T01:02:32.709Z,17.02
2019-06-19T01:03:32.690Z,17.06
2019-06-19T01:04:32.671Z,17.09
2019-06-19T01:05:32.650Z,17.12
2019-06-19T01:06:32.642Z,17.15
2019-06-19T01:07:32.613Z,17.16
2019-06-19T01:08:32.593Z,17.09
2019-06-19T01:09:32.575Z,17.09
2019-06-19T01:10:32.557Z,17.05
2019-06-19T01:11:32.535Z,17.04
2019-06-19T01:12:32.521Z,17.09
2019-06-19T01:13:32.499Z,17.11
2019-06-19T01:14:32.481Z,17.08
2019-06-19T01:15:32.462Z,17.01
2019-06-19T01:16:32.442Z,17.02
2019-06-19T01:17:32.428Z,17.01
2019-06-19T01:18:32.404Z,16.97
2019-06-19T01:19:32.387Z,16.93
2019-06-19T01:20:32.366Z,16.96
2019-06-19T01:21:32.343Z,16.89
2019-06-19T01:22:32.329Z,16.86
2019-06-19T01:23:32.309Z,16.89
2019-06-19T01:24:32.289Z,16.87
2019-06-19T01:25:32.268Z,16.84
2019-06-19T01:26:32.250Z,16.81
2019-06-19T01:27:32.234Z,16.74
2019-06-19T01:28:32.214Z,16.89
2019-06-19T01:29:32.192Z,16.93
2019-06-19T01:30:32.175Z,16.91
2019-06-19T01:31:32.156Z,17.01
2019-06-19T01:32:32.138Z,16.96
2019-06-19T01:33:32.118Z,17.01
2019-06-19T01:34:32.230Z,16.96
2019-06-19T01:35:32.079Z,16.94
2019-06-19T01:36:32.062Z,16.96
2019-06-19T01:37:32.035Z,16.97
2019-06-19T01:38:32.024Z,16.86
2019-06-19T01:39:32.002Z,16.90
2019-06-19T01:40:31.983Z,16.93
2019-06-19T01:41:32.118Z,16.86
2019-06-19T01:42:31.944Z,16.89
2019-06-19T01:43:32.192Z,16.83
2019-06-19T01:44:31.918Z,16.87
2019-06-19T01:45:31.887Z,16.84
2019-06-19T01:46:32.128Z,16.86
2019-06-19T01:47:31.848Z,16.78
2019-06-19T01:48:31.832Z,16.79
2019-06-19T01:49:31.819Z,16.83
2019-06-19T01:50:31.794Z,16.90
2019-06-19T01:51:31.775Z,16.81
2019-06-19T01:52:31.757Z,16.89
2019-06-19T01:53:31.732Z,16.96
2019-06-19T01:54:32.329Z,16.93
2019-06-19T01:55:31.693Z,16.97
2019-06-19T01:56:31.701Z,16.99
2019-06-19T01:57:31.743Z,17.08
2019-06-19T01:58:31.639Z,17.08
2019-06-19T01:59:31.619Z,16.99
2019-06-19T02:00:35.861Z,16.99
2019-06-19T02:01:31.581Z,16.99
2019-06-19T02:02:32.128Z,17.01
2019-06-19T02:03:31.546Z,16.94
2019-06-19T02:04:31.717Z,16.93
2019-06-19T02:05:31.678Z,16.90
2019-06-19T02:06:32.056Z,16.94
2019-06-19T02:07:31.465Z,16.93
2019-06-19T02:08:31.829Z,16.96
2019-06-19T02:09:31.431Z,16.90
2019-06-19T02:10:31.925Z,16.90
2019-06-19T02:11:31.662Z,16.91
2019-06-19T02:12:31.378Z,16.97
2019-06-19T02:13:31.351Z,16.94
2019-06-19T02:14:31.726Z,16.99
2019-06-19T02:15:31.352Z,17.08
2019-06-19T02:16:31.367Z,17.09
2019-06-19T02:17:31.404Z,17.09
2019-06-19T02:18:31.255Z,17.02
2019-06-19T02:19:40.060Z,17.12
2019-06-19T02:20:31.696Z,17.05
2019-06-19T02:21:31.198Z,17.09
2019-06-19T02:22:31.181Z,16.93
2019-06-19T02:23:31.159Z,17.01
2019-06-19T02:24:31.240Z,16.97
2019-06-19T02:25:31.297Z,16.96
2019-06-19T02:26:31.624Z,17.02
2019-06-19T02:27:31.086Z,17.02
2019-06-19T02:28:31.206Z,16.93
2019-06-19T02:29:31.355Z,16.97
2019-06-19T02:30:37.780Z,16.93
2019-06-19T02:31:33.217Z,17.01
2019-06-19T02:32:35.638Z,16.97
2019-06-19T02:33:32.219Z,17.01
2019-06-19T02:34:32.177Z,16.96
2019-06-19T02:35:32.781Z,17.08
2019-06-19T02:36:33.280Z,17.11
2019-06-19T02:37:32.117Z,16.99
2019-06-19T02:38:31.669Z,17.14
2019-06-19T02:39:31.556Z,17.09
2019-06-19T02:40:30.853Z,17.09
2019-06-19T02:41:30.818Z,17.22
2019-06-19T02:42:30.801Z,17.20
2019-06-19T02:43:30.777Z,17.31
2019-06-19T02:44:30.786Z,17.30
2019-06-19T02:45:30.762Z,17.34
2019-06-19T02:46:30.722Z,17.27
2019-06-19T02:47:30.707Z,17.31
2019-06-19T02:48:30.687Z,17.38
2019-06-19T02:49:30.666Z,17.33
2019-06-19T02:50:30.648Z,17.41
2019-06-19T02:51:30.625Z,17.27
2019-06-19T02:52:30.613Z,17.33
2019-06-19T02:53:30.586Z,17.38
2019-06-19T02:54:30.570Z,17.39
2019-06-19T02:55:30.548Z,17.44
2019-06-19T02:56:30.529Z,17.46
2019-06-19T02:57:30.513Z,17.45
2019-06-19T02:58:30.494Z,17.42
2019-06-19T02:59:30.473Z,17.41
2019-06-19T03:00:30.448Z,17.39
2019-06-19T03:01:30.434Z,17.39
2019-06-19T03:02:30.418Z,17.33
2019-06-19T03:03:30.399Z,17.38
2019-06-19T03:04:30.378Z,17.38
2019-06-19T03:05:30.359Z,17.41
2019-06-19T03:06:30.336Z,17.39
2019-06-19T03:07:30.320Z,17.57
2019-06-19T03:08:30.303Z,17.54
2019-06-19T03:09:30.281Z,17.57
2019-06-19T03:10:30.256Z,17.57
2019-06-19T03:11:30.238Z,17.54
2019-06-19T03:12:30.223Z,17.63
2019-06-19T03:13:30.208Z,17.64
2019-06-19T03:14:30.188Z,17.64
2019-06-19T03:15:30.172Z,17.63
2019-06-19T03:16:30.150Z,17.60
2019-06-19T03:17:30.127Z,17.65
2019-06-19T03:18:30.107Z,17.60
2019-06-19T03:19:30.096Z,17.64
2019-06-19T03:20:30.071Z,17.59
2019-06-19T03:21:30.050Z,17.57
2019-06-19T03:22:30.039Z,17.59
2019-06-19T03:23:30.037Z,17.56
2019-06-19T03:24:30.007Z,17.56
2019-06-19T03:25:29.974Z,17.49
2019-06-19T03:26:29.962Z,17.49
2019-06-19T03:27:29.938Z,17.60
2019-06-19T03:28:29.925Z,17.60
2019-06-19T03:29:29.898Z,17.68
2019-06-19T03:30:29.880Z,17.67
2019-06-19T03:31:35.467Z,17.63
2019-06-19T03:32:29.842Z,17.59
2019-06-19T03:33:29.827Z,17.56
2019-06-19T03:34:29.803Z,17.59
2019-06-19T03:35:29.787Z,17.42
2019-06-19T03:36:29.771Z,17.41
2019-06-19T03:37:29.749Z,17.27
2019-06-19T03:38:29.727Z,17.31
2019-06-19T03:39:29.709Z,17.20
2019-06-19T03:40:29.718Z,17.15
2019-06-19T03:41:29.683Z,17.12
2019-06-19T03:42:29.650Z,17.08
2019-06-19T03:43:29.633Z,17.06
2019-06-19T03:44:29.612Z,17.06
2019-06-19T03:45:29.594Z,17.01
2019-06-19T03:46:29.577Z,17.09
2019-06-19T03:47:29.559Z,17.12
2019-06-19T03:48:29.542Z,17.16
2019-06-19T03:49:29.519Z,17.11
2019-06-19T03:50:29.503Z,17.12
2019-06-19T03:51:29.483Z,17.05
2019-06-19T03:52:29.461Z,17.19
2019-06-19T03:53:29.442Z,17.05
2019-06-19T03:54:29.429Z,17.15
2019-06-19T03:55:29.405Z,17.24
2019-06-19T03:56:29.387Z,17.24
2019-06-19T03:57:29.366Z,17.30
2019-06-19T03:58:29.348Z,17.30
2019-06-19T03:59:29.328Z,17.30
2019-06-19T04:00:29.312Z,17.23
2019-06-19T04:01:29.289Z,17.24
2019-06-19T04:02:29.272Z,17.27
2019-06-19T04:03:29.257Z,17.30
2019-06-19T04:04:29.233Z,17.30
2019-06-19T04:05:29.214Z,17.30
2019-06-19T04:06:29.192Z,17.27
2019-06-19T04:07:29.182Z,17.20
2019-06-19T04:08:29.159Z,17.22
2019-06-19T04:09:29.138Z,17.22
2019-06-19T04:10:29.226Z,17.22
2019-06-19T04:11:29.099Z,17.22
2019-06-19T04:12:29.081Z,17.16
2019-06-19T04:13:29.059Z,17.22
2019-06-19T04:14:29.041Z,17.19
2019-06-19T04:15:29.025Z,17.22
2019-06-19T04:16:29.000Z,17.20
2019-06-19T04:17:28.985Z,17.20
2019-06-19T04:18:28.962Z,17.29
2019-06-19T04:19:28.948Z,17.31
2019-06-19T04:20:28.925Z,17.34
2019-06-19T04:21:28.908Z,17.39
2019-06-19T04:22:28.890Z,17.49
2019-06-19T04:23:28.868Z,17.51
2019-06-19T04:24:28.848Z,17.57
2019-06-19T04:25:28.824Z,17.59
2019-06-19T04:26:28.807Z,17.54
2019-06-19T04:27:28.791Z,17.54
2019-06-19T04:28:28.769Z,17.54
2019-06-19T04:29:28.749Z,17.64
2019-06-19T04:30:28.738Z,17.67
2019-06-19T04:31:28.721Z,17.74
2019-06-19T04:32:28.708Z,17.87
2019-06-19T04:33:28.675Z,17.89
2019-06-19T04:34:28.653Z,17.92
2019-06-19T04:35:28.641Z,17.89
2019-06-19T04:36:28.617Z,17.95
2019-06-19T04:37:28.594Z,18.08
2019-06-19T04:38:31.460Z,18.16
2019-06-19T04:39:28.559Z,18.19
2019-06-19T04:40:28.549Z,18.23
2019-06-19T04:41:28.525Z,18.25
2019-06-19T04:42:28.508Z,18.35
2019-06-19T04:43:28.497Z,18.34
2019-06-19T04:44:28.471Z,18.49
2019-06-19T04:45:28.458Z,18.55
2019-06-19T04:46:28.433Z,18.62
2019-06-19T04:47:28.411Z,18.58
2019-06-19T04:48:28.398Z,18.78
2019-06-19T04:49:28.371Z,18.90
2019-06-19T04:50:28.357Z,18.80
2019-06-19T04:51:28.335Z,18.99
2019-06-19T04:52:41.640Z,19.04
2019-06-19T04:53:28.299Z,19.14
2019-06-19T04:54:28.297Z,19.22
2019-06-19T04:55:28.269Z,19.27
2019-06-19T04:56:28.248Z,19.27
2019-06-19T04:57:28.231Z,19.30
2019-06-19T04:58:28.212Z,19.19
2019-06-19T04:59:28.194Z,19.26
2019-06-19T05:00:28.177Z,19.26
2019-06-19T05:01:28.161Z,19.16
2019-06-19T05:02:28.141Z,19.12
2019-06-19T05:03:28.123Z,19.11
2019-06-19T05:04:28.104Z,19.11
2019-06-19T05:05:28.087Z,19.12
2019-06-19T05:06:28.071Z,19.21
2019-06-19T05:07:28.054Z,19.22
2019-06-19T05:08:28.094Z,19.21
2019-06-19T05:09:28.016Z,19.22
2019-06-19T05:10:28.001Z,19.27
2019-06-19T05:11:27.982Z,19.29
2019-06-19T05:12:27.966Z,19.26
2019-06-19T05:13:27.971Z,19.30
2019-06-19T05:14:27.931Z,19.41
2019-06-19T05:15:27.916Z,19.40
2019-06-19T05:16:27.902Z,19.41
2019-06-19T05:17:27.879Z,19.40
2019-06-19T05:18:27.860Z,19.45
2019-06-19T05:19:27.843Z,19.40
2019-06-19T05:20:27.827Z,19.48
2019-06-19T05:21:27.809Z,19.54
2019-06-19T05:22:27.798Z,19.52
2019-06-19T05:23:27.775Z,19.64
2019-06-19T05:24:27.764Z,19.66
2019-06-19T05:25:27.739Z,19.77
2019-06-19T05:26:27.723Z,19.89
2019-06-19T05:27:27.701Z,20.04
2019-06-19T05:28:27.692Z,20.13
2019-06-19T05:29:27.670Z,20.41
2019-06-19T05:30:27.651Z,20.50
2019-06-19T05:31:27.634Z,20.62
2019-06-19T05:32:36.370Z,20.66
2019-06-19T05:33:27.603Z,20.70
2019-06-19T05:34:27.586Z,20.77
2019-06-19T05:35:27.570Z,20.92
2019-06-19T05:36:27.555Z,20.99
2019-06-19T05:37:27.536Z,21.09
2019-06-19T05:38:27.518Z,21.18
2019-06-19T05:39:27.503Z,21.12
2019-06-19T05:40:27.488Z,21.05
2019-06-19T05:41:27.472Z,20.97
2019-06-19T05:42:27.457Z,21.02
2019-06-19T05:43:27.437Z,21.12
2019-06-19T05:44:27.422Z,21.15
2019-06-19T05:45:27.404Z,21.30
2019-06-19T05:46:27.390Z,21.40
2019-06-19T05:47:27.372Z,21.45
2019-06-19T05:48:27.356Z,21.43
2019-06-19T05:49:27.349Z,21.42
2019-06-19T05:50:27.320Z,21.50
2019-06-19T05:51:27.308Z,21.52
2019-06-19T05:52:27.296Z,21.51
2019-06-19T05:53:27.278Z,21.64
2019-06-19T05:54:27.263Z,21.58
2019-06-19T05:55:27.253Z,21.69
2019-06-19T05:56:27.237Z,21.77
2019-06-19T05:57:27.222Z,21.75
2019-06-19T05:58:27.207Z,21.88
2019-06-19T05:59:27.190Z,21.99
2019-06-19T06:00:27.212Z,22.13
2019-06-19T06:01:27.165Z,22.08
2019-06-19T06:02:27.152Z,22.08
2019-06-19T06:03:27.137Z,22.10
2019-06-19T06:04:27.124Z,22.26
2019-06-19T06:05:27.113Z,22.35
2019-06-19T06:06:27.099Z,22.39
2019-06-19T06:07:27.089Z,22.39
2019-06-19T06:08:27.092Z,22.44
2019-06-19T06:09:27.062Z,22.51
2019-06-19T06:10:27.053Z,22.48
2019-06-19T06:11:27.041Z,22.59
2019-06-19T06:12:27.030Z,22.69
2019-06-19T06:13:27.009Z,22.78
2019-06-19T06:14:27.004Z,22.69
2019-06-19T06:15:26.989Z,22.54
2019-06-19T06:16:26.983Z,22.63
2019-06-19T06:17:26.986Z,22.62
2019-06-19T06:18:26.959Z,22.47
2019-06-19T06:19:26.947Z,22.60
2019-06-19T06:20:26.945Z,22.50
2019-06-19T06:21:26.923Z,22.55
2019-06-19T06:22:26.922Z,22.66
2019-06-19T06:23:26.907Z,22.78
2019-06-19T06:24:26.897Z,22.87
2019-06-19T06:25:26.885Z,23.13
2019-06-19T06:26:26.874Z,23.44
2019-06-19T06:27:26.866Z,23.83
2019-06-19T06:28:26.850Z,24.28
2019-06-19T06:29:26.855Z,24.58
2019-06-19T06:30:26.832Z,25.04
2019-06-19T06:31:26.820Z,25.07
2019-06-19T06:32:26.810Z,25.31
2019-06-19T06:33:26.802Z,25.55
2019-06-19T06:34:26.791Z,25.93
2019-06-19T06:35:26.782Z,25.78
2019-06-19T06:36:26.774Z,26.06
2019-06-19T06:37:26.761Z,26.02
2019-06-19T06:38:26.751Z,26.43
2019-06-19T06:39:26.747Z,26.63
2019-06-19T06:40:26.736Z,26.63
2019-06-19T06:41:26.724Z,26.31
2019-06-19T06:42:26.716Z,26.21
2019-06-19T06:43:26.703Z,26.33
2019-06-19T06:44:26.696Z,26.47
2019-06-19T06:45:26.687Z,26.19
2019-06-19T06:46:26.676Z,26.40
2019-06-19T06:47:26.667Z,26.41
2019-06-19T06:48:26.660Z,26.21
2019-06-19T06:49:26.649Z,26.19
2019-06-19T06:50:26.672Z,26.34
2019-06-19T06:51:26.637Z,26.65
2019-06-19T06:52:26.627Z,26.83
2019-06-19T06:53:26.614Z,26.96
2019-06-19T06:54:26.605Z,27.32
2019-06-19T06:55:26.597Z,27.74
2019-06-19T06:56:26.588Z,28.17
2019-06-19T06:57:26.577Z,28.30
2019-06-19T06:58:26.579Z,28.26
2019-06-19T06:59:26.562Z,28.48
2019-06-19T07:00:26.582Z,27.87
2019-06-19T07:01:26.543Z,27.36
2019-06-19T07:02:26.537Z,27.14
2019-06-19T07:03:26.527Z,27.45
2019-06-19T07:04:26.524Z,28.01
2019-06-19T07:05:26.509Z,28.08
2019-06-19T07:06:26.500Z,28.12
2019-06-19T07:07:26.501Z,28.00
2019-06-19T07:08:26.483Z,28.15
2019-06-19T07:09:26.481Z,28.20
2019-06-19T07:10:26.471Z,28.57
2019-06-19T07:11:26.467Z,28.72
2019-06-19T07:12:26.455Z,28.88
2019-06-19T07:13:26.452Z,29.12
2019-06-19T07:14:26.439Z,29.12
2019-06-19T07:15:26.433Z,29.19
2019-06-19T07:16:26.425Z,29.34
2019-06-19T07:17:26.415Z,28.57
2019-06-19T07:18:26.525Z,27.82
2019-06-19T07:19:26.726Z,27.77
2019-06-19T07:20:26.397Z,27.95
2019-06-19T07:21:26.385Z,27.96
2019-06-19T07:22:26.380Z,28.07
2019-06-19T07:23:26.372Z,27.83
2019-06-19T07:24:26.363Z,28.08
2019-06-19T07:25:26.360Z,27.83
2019-06-19T07:26:26.355Z,28.00
2019-06-19T07:27:26.343Z,28.41
2019-06-19T07:28:26.339Z,28.63
2019-06-19T07:29:26.327Z,29.04
2019-06-19T07:30:26.318Z,29.45
2019-06-19T07:31:26.313Z,29.65
2019-06-19T07:32:26.305Z,29.68
2019-06-19T07:33:40.578Z,29.34
2019-06-19T07:34:26.291Z,29.34
2019-06-19T07:35:26.284Z,28.89
2019-06-19T07:36:26.277Z,29.05
2019-06-19T07:37:26.269Z,28.63
2019-06-19T07:38:26.265Z,28.49
2019-06-19T07:39:31.920Z,28.56
2019-06-19T07:40:26.256Z,29.07
2019-06-19T07:41:26.246Z,28.64
2019-06-19T07:42:26.243Z,27.93
2019-06-19T07:43:26.223Z,28.04
2019-06-19T07:44:26.221Z,28.26
2019-06-19T07:45:26.217Z,28.66
2019-06-19T07:46:26.211Z,29.17
2019-06-19T07:47:26.204Z,29.54
2019-06-19T07:48:26.206Z,29.32
2019-06-19T07:49:26.195Z,29.20
2019-06-19T07:50:26.187Z,28.93
2019-06-19T07:51:26.195Z,28.86
2019-06-19T07:52:26.174Z,29.16
2019-06-19T07:53:26.170Z,29.71
2019-06-19T07:54:26.165Z,30.00
2019-06-19T07:55:26.155Z,30.19
2019-06-19T07:56:26.147Z,30.39
2019-06-19T07:57:26.144Z,29.94
2019-06-19T07:58:26.139Z,30.32
2019-06-19T07:59:26.140Z,31.07
2019-06-19T08:00:26.131Z,31.06
2019-06-19T08:01:26.119Z,31.43
2019-06-19T08:02:26.117Z,31.76
2019-06-19T08:03:26.121Z,31.76
2019-06-19T08:04:26.121Z,32.03
2019-06-19T08:05:26.098Z,32.29
2019-06-19T08:06:26.100Z,32.16
2019-06-19T08:07:26.095Z,31.70
2019-06-19T08:08:26.085Z,31.21
2019-06-19T08:09:26.075Z,31.05
2019-06-19T08:10:26.074Z,31.10
2019-06-19T08:11:26.066Z,31.24
2019-06-19T08:12:26.067Z,31.17
2019-06-19T08:13:26.057Z,31.34
2019-06-19T08:14:26.060Z,31.52
2019-06-19T08:15:26.049Z,31.46
2019-06-19T08:16:26.045Z,30.05
2019-06-19T08:17:26.040Z,29.57
2019-06-19T08:18:26.034Z,29.79
2019-06-19T08:19:26.034Z,29.97
2019-06-19T08:20:26.022Z,29.97
2019-06-19T08:21:26.023Z,29.29
2019-06-19T08:22:26.015Z,29.54
2019-06-19T08:23:26.033Z,29.72
2019-06-19T08:24:26.007Z,30.30
2019-06-19T08:25:26.002Z,30.81
2019-06-19T08:26:25.993Z,31.06
2019-06-19T08:27:25.989Z,31.54
2019-06-19T08:28:25.986Z,31.47
2019-06-19T08:29:25.984Z,30.40
2019-06-19T08:30:25.984Z,29.90
2019-06-19T08:31:26.058Z,29.68
2019-06-19T08:32:25.975Z,29.61
2019-06-19T08:33:25.969Z,30.18
2019-06-19T08:34:31.485Z,30.27
2019-06-19T08:35:25.964Z,30.30
2019-06-19T08:36:25.954Z,29.90
2019-06-19T08:37:25.954Z,30.43
2019-06-19T08:38:25.950Z,30.70
2019-06-19T08:39:25.945Z,31.17
2019-06-19T08:40:25.944Z,31.37
2019-06-19T08:41:25.939Z,31.05
2019-06-19T08:42:25.931Z,30.55
2019-06-19T08:43:25.929Z,30.47
2019-06-19T08:44:25.924Z,30.68
2019-06-19T08:45:25.927Z,30.59
2019-06-19T08:46:25.916Z,30.19
2019-06-19T08:47:25.917Z,29.90
2019-06-19T08:48:25.909Z,29.31
2019-06-19T08:49:25.907Z,29.29
2019-06-19T08:50:25.908Z,29.35
2019-06-19T08:51:25.902Z,29.32
2019-06-19T08:52:25.898Z,29.32
2019-06-19T08:53:25.888Z,29.34
2019-06-19T08:54:25.901Z,29.26
2019-06-19T08:55:25.876Z,28.85
2019-06-19T08:56:25.875Z,28.88
2019-06-19T08:57:25.882Z,29.27
2019-06-19T08:58:28.341Z,29.42
2019-06-19T08:59:25.857Z,29.23
2019-06-19T09:00:25.856Z,29.34
2019-06-19T09:01:25.847Z,29.65
2019-06-19T09:02:25.837Z,30.05
2019-06-19T09:03:25.837Z,30.08
2019-06-19T09:04:34.528Z,30.23
2019-06-19T09:05:25.820Z,29.88
2019-06-19T09:06:25.819Z,29.71
2019-06-19T09:07:25.815Z,29.65
2019-06-19T09:08:25.852Z,29.94
2019-06-19T09:09:25.804Z,30.46
2019-06-19T09:10:25.802Z,29.94
2019-06-19T09:11:25.794Z,30.09
2019-06-19T09:12:25.784Z,30.43
2019-06-19T09:13:25.788Z,30.73
2019-06-19T09:14:25.989Z,30.27
2019-06-19T09:15:25.771Z,29.88
2019-06-19T09:16:25.772Z,30.08
2019-06-19T09:17:25.778Z,30.32
2019-06-19T09:18:25.766Z,29.93
2019-06-19T09:19:25.759Z,30.10
2019-06-19T09:20:25.754Z,30.21
2019-06-19T09:21:25.742Z,30.54
2019-06-19T09:22:25.741Z,30.53
2019-06-19T09:23:25.734Z,30.15
2019-06-19T09:24:25.738Z,30.19
2019-06-19T09:25:25.727Z,30.24
2019-06-19T09:26:25.742Z,30.27
2019-06-19T09:27:25.715Z,30.75
2019-06-19T09:28:25.715Z,30.34
2019-06-19T09:29:25.706Z,30.27
2019-06-19T09:30:25.703Z,30.24
2019-06-19T09:31:25.702Z,30.27
2019-06-19T09:32:25.700Z,30.66
2019-06-19T09:33:25.694Z,30.69
2019-06-19T09:34:25.688Z,30.66
2019-06-19T09:35:25.681Z,30.55
2019-06-19T09:36:25.681Z,30.66
2019-06-19T09:37:25.673Z,30.92
2019-06-19T09:38:25.667Z,31.17
2019-06-19T09:39:25.681Z,31.09
2019-06-19T09:40:25.682Z,30.65
2019-06-19T09:41:25.658Z,30.31
2019-06-19T09:42:25.654Z,29.84
2019-06-19T09:43:25.650Z,29.76
2019-06-19T09:44:25.642Z,29.91
2019-06-19T09:45:25.642Z,29.61
2019-06-19T09:46:25.632Z,29.14
2019-06-19T09:47:25.631Z,29.17
2019-06-19T09:48:25.627Z,29.38
2019-06-19T09:49:25.621Z,29.61
2019-06-19T09:50:25.621Z,29.36
2019-06-19T09:51:25.615Z,29.97
2019-06-19T09:52:25.633Z,30.02
2019-06-19T09:53:25.606Z,30.25
2019-06-19T09:54:25.603Z,30.23
2019-06-19T09:55:25.597Z,30.12
2019-06-19T09:56:25.589Z,30.10
2019-06-19T09:57:25.591Z,30.43
2019-06-19T09:58:25.583Z,30.39
2019-06-19T09:59:25.579Z,30.27
2019-06-19T10:00:25.600Z,30.28
2019-06-19T10:01:25.581Z,30.09
2019-06-19T10:02:25.567Z,30.06
2019-06-19T10:03:34.117Z,30.30
2019-06-19T10:04:25.565Z,30.10
2019-06-19T10:05:25.551Z,30.15
2019-06-19T10:06:25.552Z,30.57
2019-06-19T10:07:25.549Z,30.35
2019-06-19T10:08:25.539Z,30.09
2019-06-19T10:09:25.646Z,30.27
2019-06-19T10:10:25.536Z,29.86
2019-06-19T10:11:25.534Z,29.78
2019-06-19T10:12:25.521Z,30.09
2019-06-19T10:13:25.519Z,29.87
2019-06-19T10:14:25.519Z,30.40
2019-06-19T10:15:25.512Z,30.28
2019-06-19T10:16:25.511Z,30.37
2019-06-19T10:17:25.502Z,30.06
2019-06-19T10:18:25.510Z,29.87
2019-06-19T10:19:25.497Z,29.90
2019-06-19T10:20:25.488Z,30.12
2019-06-19T10:21:25.483Z,30.44
2019-06-19T10:22:25.486Z,30.77
2019-06-19T10:23:25.490Z,30.75
2019-06-19T10:24:25.474Z,31.03
2019-06-19T10:25:25.465Z,31.31
2019-06-19T10:26:25.468Z,31.54
2019-06-19T10:27:25.576Z,31.46
2019-06-19T10:28:25.463Z,31.51
2019-06-19T10:29:25.534Z,31.00
2019-06-19T10:30:25.451Z,31.09
2019-06-19T10:31:25.476Z,31.03
2019-06-19T10:32:31.960Z,31.07
2019-06-19T10:33:25.437Z,31.29
2019-06-19T10:34:25.432Z,31.39
2019-06-19T10:35:25.426Z,31.39
2019-06-19T10:36:25.417Z,31.43
2019-06-19T10:37:25.418Z,31.43
2019-06-19T10:38:25.417Z,31.56
2019-06-19T10:39:25.413Z,31.65
2019-06-19T10:40:25.405Z,31.71
2019-06-19T10:41:25.404Z,31.61
2019-06-19T10:42:25.405Z,31.39
2019-06-19T10:43:25.404Z,31.43
2019-06-19T10:44:25.391Z,31.12
2019-06-19T10:45:25.385Z,31.39
2019-06-19T10:46:40.356Z,31.56
2019-06-19T10:47:25.390Z,31.76
2019-06-19T10:48:25.374Z,31.43
2019-06-19T10:49:25.442Z,31.69
2019-06-19T10:50:25.361Z,31.74
2019-06-19T10:51:25.367Z,31.90
2019-06-19T10:52:25.367Z,32.18
2019-06-19T10:53:25.349Z,31.96
2019-06-19T10:54:25.356Z,31.73
2019-06-19T10:55:25.353Z,31.93
2019-06-19T10:56:25.345Z,32.12
2019-06-19T10:57:25.339Z,31.94
2019-06-19T10:58:25.357Z,31.85
2019-06-19T10:59:25.352Z,31.66
2019-06-19T11:00:25.332Z,31.81
2019-06-19T11:01:25.334Z,31.96
2019-06-19T11:02:25.325Z,31.94
2019-06-19T11:03:25.333Z,32.00
2019-06-19T11:04:25.329Z,32.07
2019-06-19T11:05:38.796Z,32.14
2019-06-19T11:06:25.303Z,31.85
2019-06-19T11:07:25.306Z,32.21
2019-06-19T11:08:25.459Z,32.16
2019-06-19T11:09:25.289Z,32.40
2019-06-19T11:10:25.306Z,32.11
2019-06-19T11:11:25.292Z,32.16
2019-06-19T11:12:25.301Z,32.41
2019-06-19T11:13:25.283Z,32.89
2019-06-19T11:14:25.277Z,32.92
2019-06-19T11:15:25.280Z,32.78
2019-06-19T11:16:25.276Z,32.49
2019-06-19T11:17:25.270Z,32.27
2019-06-19T11:18:25.265Z,32.26
2019-06-19T11:19:25.261Z,32.52
2019-06-19T11:20:25.253Z,32.30
2019-06-19T11:21:26.386Z,32.08
2019-06-19T11:22:25.252Z,32.21
2019-06-19T11:23:25.246Z,32.03
2019-06-19T11:24:25.245Z,31.97
2019-06-19T11:25:25.242Z,31.58
2019-06-19T11:26:25.235Z,31.52
2019-06-19T11:27:25.245Z,30.99
2019-06-19T11:28:25.259Z,31.20
2019-06-19T11:29:25.224Z,31.00
2019-06-19T11:30:25.222Z,31.31
2019-06-19T11:31:25.223Z,31.40
2019-06-19T11:32:25.212Z,31.42
2019-06-19T11:33:25.226Z,31.44
2019-06-19T11:34:25.203Z,31.81
2019-06-19T11:35:25.200Z,31.71
2019-06-19T11:36:25.206Z,31.78
2019-06-19T11:37:25.199Z,31.43
2019-06-19T11:38:25.187Z,31.89
2019-06-19T11:39:25.183Z,32.29
2019-06-19T11:40:25.180Z,32.38
2019-06-19T11:41:25.175Z,32.07
2019-06-19T11:42:25.180Z,32.30
2019-06-19T11:43:25.174Z,32.53
2019-06-19T11:44:25.176Z,32.51
2019-06-19T11:45:25.162Z,32.59
2019-06-19T11:46:25.156Z,32.33
2019-06-19T11:47:25.151Z,32.11
2019-06-19T11:48:25.149Z,31.97
2019-06-19T11:49:25.146Z,32.11
2019-06-19T11:50:25.140Z,32.18
2019-06-19T11:51:25.137Z,31.96
2019-06-19T11:52:25.135Z,32.21
2019-06-19T11:53:25.138Z,32.53
2019-06-19T11:54:25.167Z,32.78
2019-06-19T11:55:25.124Z,33.08
2019-06-19T11:56:25.118Z,32.97
2019-06-19T11:57:25.116Z,33.00
2019-06-19T11:58:25.111Z,33.01
2019-06-19T11:59:25.114Z,32.46
2019-06-19T12:00:25.101Z,32.46
2019-06-19T12:01:25.108Z,32.63
2019-06-19T12:02:25.104Z,32.38
2019-06-19T12:03:27.077Z,32.73
2019-06-19T12:04:25.090Z,32.74
2019-06-19T12:05:25.088Z,32.53
2019-06-19T12:06:25.079Z,32.56
2019-06-19T12:07:25.077Z,32.29
2019-06-19T12:08:25.075Z,32.49
2019-06-19T12:09:25.074Z,32.63
2019-06-19T12:10:25.068Z,32.21
2019-06-19T12:11:25.062Z,32.09
2019-06-19T12:12:25.080Z,32.40
2019-06-19T12:13:25.051Z,32.63
2019-06-19T12:14:25.051Z,32.55
2019-06-19T12:15:25.049Z,31.99
2019-06-19T12:16:25.054Z,32.16
2019-06-19T12:17:25.040Z,32.38
2019-06-19T12:18:25.040Z,32.58
2019-06-19T12:19:25.083Z,32.55
2019-06-19T12:20:25.033Z,32.80
2019-06-19T12:21:25.032Z,32.43
2019-06-19T12:22:25.019Z,32.09
2019-06-19T12:23:25.017Z,32.14
2019-06-19T12:24:25.018Z,31.99
2019-06-19T12:25:25.004Z,32.29
2019-06-19T12:26:25.008Z,32.52
2019-06-19T12:27:25.003Z,32.56
2019-06-19T12:28:24.999Z,32.86
2019-06-19T12:29:24.995Z,32.93
2019-06-19T12:30:25.008Z,32.78
2019-06-19T12:31:24.987Z,32.40
2019-06-19T12:32:24.979Z,32.55
2019-06-19T12:33:24.979Z,32.46
2019-06-19T12:34:24.976Z,33.01
2019-06-19T12:35:24.969Z,33.46
2019-06-19T12:36:29.771Z,33.42
2019-06-19T12:37:24.962Z,33.00
2019-06-19T12:38:24.958Z,33.36
2019-06-19T12:39:24.959Z,32.97
2019-06-19T12:40:24.950Z,33.17
2019-06-19T12:41:24.954Z,33.24
2019-06-19T12:42:24.950Z,33.52
2019-06-19T12:43:25.005Z,33.50
2019-06-19T12:44:24.955Z,33.61
2019-06-19T12:45:24.934Z,33.62
2019-06-19T12:46:24.928Z,33.45
2019-06-19T12:47:24.927Z,33.79
2019-06-19T12:48:24.933Z,33.62
2019-06-19T12:49:24.919Z,33.34
2019-06-19T12:50:24.949Z,33.65
2019-06-19T12:51:24.910Z,33.74
2019-06-19T12:52:24.906Z,33.36